Skip Navigation LinksHome page > Weather > Current weather Skip Navigation Links

Current Weather

Chicago O'Hare Intl, Chicago

For information only: do not use for flight planning or navigation.
Latest weather
Observation time Sunday, December 17, 2017 4:51 PM CST
Local time Sunday, December 17, 2017 5:12 PM CST
Flight conditions Visual Meteorological Conditions
Winds
Wind speed calm
Visibility 10 mi.
Sky condition
Ceiling 11,000 ft. broken clouds
Cloud layer broken clouds 11,000 ft.
Cloud layer overcast 25,000 ft.
Temperature 40°F
Dewpoint 31°F
Altimeter 29.97 in.Hg
Derived measurements
Relative humidity 70%
Wind chill 40°F
Density altitude -582 ft.
Sea-level pressure 29.98 in.Hg
Remarks
Automated weather observing station with precipitation discriminator.
METAR KORD 172251Z 00000KT 10SM BKN110 OVC250 04/M01 A2997 RMK AO2 SLP153 T00441006

Settings

Location code

InnerDrive.Weather 4.0.6144.1 Release CLR 4.0.30319.36366
Copyright ©2015 Inner Drive Technology. All rights reserved. Portions Copyright ©1986-2015 David Braverman.

Find weather

Site navigation


Skip Navigation Links

Place info

Page info

PayPal - The safer, easier way to pay online!

Return home.

Copyright ©2017 Inner Drive Technology. Purveyors of fine, hand-crafted computer software. Page printed 2017-12-17T23:12:56 UTC.